Terminal Aerodrome Forecast
Issued by NWS Mt. Holly, NJ

Home | Current Version | Previous Version | Text Only | Print | Product List | Glossary On
Versions: 1 2 3 4 5 6 7 8 9 10 11 12 13 14 15 16
000
FTUS41 KPHI 220800 AAB
TAFACY
TAF AMD
KACY 220846Z 2209/2306 08007KT P6SM SCT006 OVC015
      TEMPO 2209/2212 4SM TSRA BKN006CB OVC025
     FM221300 09007KT P6SM OVC020
     FM221600 09008KT P6SM -SHRA BKN040
     FM230500 07007KT 5SM BR OVC025=

USA.gov is the U.S. government's official web portal to all federal, state and local government web resources and services.